createdAt,value
2018-04-22T00:18:52.244Z,98344.14
2018-04-22T00:39:24.753Z,98332.23
2018-04-22T01:00:01.923Z,98316.56
2018-04-22T01:20:37.152Z,98304.41
2018-04-22T01:41:11.190Z,98302.91
2018-04-22T02:01:44.307Z,98293.05
2018-04-22T02:22:19.579Z,98257.66
2018-04-22T02:42:53.627Z,98263.50
2018-04-22T03:03:28.888Z,98244.80
2018-04-22T03:24:02.012Z,98241.82
2018-04-22T03:44:34.210Z,98222.99
2018-04-22T04:05:09.914Z,98228.50
2018-04-22T04:26:01.038Z,98215.63
2018-04-22T04:46:36.535Z,98220.32
2018-04-22T05:07:11.581Z,98235.45
2018-04-22T05:27:45.982Z,98235.61
2018-04-22T05:48:19.972Z,98229.86
2018-04-22T06:08:55.251Z,98222.48
2018-04-22T06:29:29.826Z,98211.50
2018-04-22T06:50:03.645Z,98198.77
2018-04-22T07:10:38.105Z,98187.98
2018-04-22T07:31:11.114Z,98183.30
2018-04-22T07:51:45.164Z,98173.30
2018-04-22T08:12:19.505Z,98158.84
2018-04-22T08:32:53.986Z,98142.25
2018-04-22T08:53:35.889Z,98131.42
2018-04-22T09:14:11.505Z,98131.53
2018-04-22T09:34:43.369Z,98110.94
2018-04-22T09:55:17.719Z,98073.44
2018-04-22T10:15:57.193Z,98053.77
2018-04-22T10:36:34.444Z,98021.41
2018-04-22T10:57:05.369Z,98001.11
2018-04-22T11:17:42.794Z,97972.52
2018-04-22T11:38:15.916Z,97965.64
2018-04-22T11:58:49.048Z,97942.89
2018-04-22T12:19:22.164Z,97931.09
2018-04-22T12:39:55.591Z,97920.92
2018-04-22T13:00:27.789Z,97902.07
2018-04-22T13:21:00.911Z,97888.23
2018-04-22T13:41:33.345Z,97870.11
2018-04-22T14:02:05.317Z,97847.55
2018-04-22T14:22:40.585Z,97830.36
2018-04-22T14:43:13.704Z,97823.02
2018-04-22T15:03:47.748Z,97808.63
2018-04-22T15:24:23.025Z,97797.00
2018-04-22T15:44:57.378Z,97805.11
2018-04-22T16:05:32.645Z,97809.50
2018-04-22T16:26:05.767Z,97814.55
2018-04-22T16:46:38.295Z,97822.67
2018-04-22T17:07:14.168Z,97823.64
2018-04-22T17:27:49.766Z,97829.50
2018-04-22T17:48:22.972Z,97857.23
2018-04-22T18:08:59.229Z,97865.91
2018-04-22T18:29:30.953Z,97884.59
2018-04-22T18:50:05.633Z,97902.78
2018-04-22T19:10:37.504Z,97916.25
2018-04-22T19:31:08.780Z,97927.63
2018-04-22T19:51:41.903Z,97942.92
2018-04-22T20:12:16.254Z,97958.77
2018-04-22T20:32:48.452Z,97979.95
2018-04-22T20:53:23.073Z,97994.05
2018-04-22T21:13:56.860Z,97999.88
2018-04-22T21:34:29.051Z,98019.29
2018-04-22T21:55:03.516Z,98027.56
2018-04-22T22:15:33.448Z,98037.71
2018-04-22T22:36:05.652Z,98026.72
2018-04-22T22:56:41.124Z,98027.95
2018-04-22T23:17:15.890Z,98041.84
2018-04-22T23:37:50.240Z,98027.25
2018-04-22T23:58:25.512Z,98026.78
